sensor_id;sensor_type;location;lat;lon;timestamp;P1;durP1;ratioP1;P2;durP2;ratioP2
26908;SDS011;14477;51.038;4.588;2023-10-08T00:01:08;1.38;;;0.95;;
26908;SDS011;14477;51.038;4.588;2023-10-08T00:03:42;1.80;;;1.20;;
26908;SDS011;14477;51.038;4.588;2023-10-08T00:06:14;2.17;;;1.10;;
26908;SDS011;14477;51.038;4.588;2023-10-08T00:08:40;2.33;;;1.10;;
26908;SDS011;14477;51.038;4.588;2023-10-08T00:11:06;1.75;;;1.02;;
26908;SDS011;14477;51.038;4.588;2023-10-08T00:13:33;2.95;;;1.20;;
26908;SDS011;14477;51.038;4.588;2023-10-08T00:16:05;2.53;;;1.10;;
26908;SDS011;14477;51.038;4.588;2023-10-08T00:18:35;2.90;;;1.30;;
26908;SDS011;14477;51.038;4.588;2023-10-08T00:21:14;2.50;;;1.10;;
26908;SDS011;14477;51.038;4.588;2023-10-08T00:23:40;1.90;;;1.10;;
26908;SDS011;14477;51.038;4.588;2023-10-08T00:26:17;2.10;;;1.08;;
26908;SDS011;14477;51.038;4.588;2023-10-08T00:29:02;2.55;;;1.00;;
26908;SDS011;14477;51.038;4.588;2023-10-08T00:31:41;1.40;;;0.80;;
26908;SDS011;14477;51.038;4.588;2023-10-08T00:34:10;1.65;;;1.00;;
26908;SDS011;14477;51.038;4.588;2023-10-08T00:36:42;1.90;;;1.17;;
26908;SDS011;14477;51.038;4.588;2023-10-08T00:39:09;2.20;;;1.20;;
26908;SDS011;14477;51.038;4.588;2023-10-08T00:41:46;1.83;;;0.93;;
26908;SDS011;14477;51.038;4.588;2023-10-08T00:44:12;2.53;;;1.30;;
26908;SDS011;14477;51.038;4.588;2023-10-08T00:46:40;2.50;;;1.05;;
26908;SDS011;14477;51.038;4.588;2023-10-08T00:49:16;2.20;;;1.10;;
26908;SDS011;14477;51.038;4.588;2023-10-08T00:51:47;2.05;;;1.10;;
26908;SDS011;14477;51.038;4.588;2023-10-08T00:54:33;1.83;;;0.80;;
26908;SDS011;14477;51.038;4.588;2023-10-08T00:57:11;2.37;;;1.20;;
26908;SDS011;14477;51.038;4.588;2023-10-08T00:59:45;2.92;;;1.00;;
26908;SDS011;14477;51.038;4.588;2023-10-08T01:02:17;2.10;;;1.00;;
26908;SDS011;14477;51.038;4.588;2023-10-08T01:04:50;1.25;;;0.90;;
26908;SDS011;14477;51.038;4.588;2023-10-08T01:07:16;2.60;;;1.10;;
26908;SDS011;14477;51.038;4.588;2023-10-08T01:09:44;2.22;;;0.90;;
26908;SDS011;14477;51.038;4.588;2023-10-08T01:12:24;3.15;;;1.10;;
26908;SDS011;14477;51.038;4.588;2023-10-08T01:14:59;1.73;;;1.00;;
26908;SDS011;14477;51.038;4.588;2023-10-08T01:17:41;2.20;;;1.00;;
26908;SDS011;14477;51.038;4.588;2023-10-08T01:20:22;2.43;;;0.80;;
26908;SDS011;14477;51.038;4.588;2023-10-08T01:25:46;1.70;;;1.00;;
26908;SDS011;14477;51.038;4.588;2023-10-08T01:28:16;2.17;;;0.90;;
26908;SDS011;14477;51.038;4.588;2023-10-08T01:30:52;2.53;;;0.90;;
26908;SDS011;14477;51.038;4.588;2023-10-08T01:33:20;2.17;;;1.07;;
26908;SDS011;14477;51.038;4.588;2023-10-08T01:35:47;1.80;;;0.82;;
26908;SDS011;14477;51.038;4.588;2023-10-08T01:38:15;1.75;;;0.88;;
26908;SDS011;14477;51.038;4.588;2023-10-08T01:40:47;2.13;;;1.00;;
26908;SDS011;14477;51.038;4.588;2023-10-08T01:43:16;1.40;;;0.90;;
26908;SDS011;14477;51.038;4.588;2023-10-08T01:45:43;2.17;;;0.90;;
26908;SDS011;14477;51.038;4.588;2023-10-08T01:48:13;2.08;;;0.90;;
26908;SDS011;14477;51.038;4.588;2023-10-08T01:50:56;1.88;;;1.10;;
26908;SDS011;14477;51.038;4.588;2023-10-08T01:53:28;1.85;;;1.00;;
26908;SDS011;14477;51.038;4.588;2023-10-08T01:55:55;1.50;;;0.90;;
26908;SDS011;14477;51.038;4.588;2023-10-08T01:58:21;1.77;;;0.90;;
26908;SDS011;14477;51.038;4.588;2023-10-08T02:00:50;1.88;;;1.08;;
26908;SDS011;14477;51.038;4.588;2023-10-08T02:03:17;2.38;;;1.10;;
26908;SDS011;14477;51.038;4.588;2023-10-08T02:05:47;2.83;;;1.00;;
26908;SDS011;14477;51.038;4.588;2023-10-08T02:08:13;2.13;;;1.00;;
26908;SDS011;14477;51.038;4.588;2023-10-08T02:10:42;2.00;;;1.02;;
26908;SDS011;14477;51.038;4.588;2023-10-08T02:13:12;1.83;;;1.20;;
26908;SDS011;14477;51.038;4.588;2023-10-08T02:15:45;2.35;;;1.10;;
26908;SDS011;14477;51.038;4.588;2023-10-08T02:18:16;1.48;;;0.95;;
26908;SDS011;14477;51.038;4.588;2023-10-08T02:20:42;1.87;;;1.00;;
26908;SDS011;14477;51.038;4.588;2023-10-08T02:23:09;1.63;;;0.90;;
26908;SDS011;14477;51.038;4.588;2023-10-08T02:25:39;2.53;;;1.00;;
26908;SDS011;14477;51.038;4.588;2023-10-08T02:28:08;2.38;;;0.98;;
26908;SDS011;14477;51.038;4.588;2023-10-08T02:30:34;2.60;;;1.00;;
26908;SDS011;14477;51.038;4.588;2023-10-08T02:33:07;1.20;;;0.80;;
26908;SDS011;14477;51.038;4.588;2023-10-08T02:35:42;1.85;;;1.00;;
26908;SDS011;14477;51.038;4.588;2023-10-08T02:38:09;2.03;;;0.88;;
26908;SDS011;14477;51.038;4.588;2023-10-08T02:40:38;2.80;;;1.10;;
26908;SDS011;14477;51.038;4.588;2023-10-08T02:43:10;1.75;;;1.02;;
26908;SDS011;14477;51.038;4.588;2023-10-08T02:45:36;2.60;;;1.20;;
26908;SDS011;14477;51.038;4.588;2023-10-08T02:48:06;1.80;;;0.98;;
26908;SDS011;14477;51.038;4.588;2023-10-08T02:50:39;2.25;;;1.10;;
26908;SDS011;14477;51.038;4.588;2023-10-08T02:53:09;1.67;;;0.95;;
26908;SDS011;14477;51.038;4.588;2023-10-08T02:55:39;2.58;;;1.20;;
26908;SDS011;14477;51.038;4.588;2023-10-08T02:58:12;1.90;;;0.90;;
26908;SDS011;14477;51.038;4.588;2023-10-08T03:00:44;1.88;;;1.00;;
26908;SDS011;14477;51.038;4.588;2023-10-08T03:03:14;2.92;;;1.02;;
26908;SDS011;14477;51.038;4.588;2023-10-08T03:05:46;1.58;;;0.98;;
26908;SDS011;14477;51.038;4.588;2023-10-08T03:08:13;1.85;;;1.08;;
26908;SDS011;14477;51.038;4.588;2023-10-08T03:10:52;1.90;;;1.00;;
26908;SDS011;14477;51.038;4.588;2023-10-08T03:13:27;1.75;;;0.90;;
26908;SDS011;14477;51.038;4.588;2023-10-08T03:15:53;2.70;;;1.10;;
26908;SDS011;14477;51.038;4.588;2023-10-08T03:18:24;1.90;;;1.10;;
26908;SDS011;14477;51.038;4.588;2023-10-08T03:20:50;1.73;;;1.00;;
26908;SDS011;14477;51.038;4.588;2023-10-08T03:23:16;2.72;;;1.23;;
26908;SDS011;14477;51.038;4.588;2023-10-08T03:25:54;1.70;;;1.00;;
26908;SDS011;14477;51.038;4.588;2023-10-08T03:28:37;2.00;;;1.03;;
26908;SDS011;14477;51.038;4.588;2023-10-08T03:31:06;1.52;;;1.00;;
26908;SDS011;14477;51.038;4.588;2023-10-08T03:33:39;1.92;;;0.85;;
26908;SDS011;14477;51.038;4.588;2023-10-08T03:36:05;2.85;;;0.98;;
26908;SDS011;14477;51.038;4.588;2023-10-08T03:38:54;1.75;;;1.23;;
26908;SDS011;14477;51.038;4.588;2023-10-08T03:41:22;2.47;;;1.27;;
26908;SDS011;14477;51.038;4.588;2023-10-08T03:43:58;1.83;;;1.10;;
26908;SDS011;14477;51.038;4.588;2023-10-08T03:46:30;1.75;;;1.00;;
26908;SDS011;14477;51.038;4.588;2023-10-08T03:49:00;1.63;;;0.90;;
26908;SDS011;14477;51.038;4.588;2023-10-08T03:51:30;2.67;;;1.13;;
26908;SDS011;14477;51.038;4.588;2023-10-08T03:54:04;1.40;;;0.93;;
26908;SDS011;14477;51.038;4.588;2023-10-08T03:56:39;2.08;;;1.08;;
26908;SDS011;14477;51.038;4.588;2023-10-08T03:59:13;1.98;;;1.10;;
26908;SDS011;14477;51.038;4.588;2023-10-08T04:01:45;1.95;;;1.08;;
26908;SDS011;14477;51.038;4.588;2023-10-08T04:04:14;2.88;;;1.10;;
26908;SDS011;14477;51.038;4.588;2023-10-08T04:06:42;2.03;;;1.00;;
26908;SDS011;14477;51.038;4.588;2023-10-08T04:09:15;2.35;;;1.10;;
26908;SDS011;14477;51.038;4.588;2023-10-08T04:11:49;2.15;;;1.10;;
26908;SDS011;14477;51.038;4.588;2023-10-08T04:14:29;2.83;;;1.20;;
26908;SDS011;14477;51.038;4.588;2023-10-08T04:16:56;2.20;;;1.10;;
26908;SDS011;14477;51.038;4.588;2023-10-08T04:19:23;1.95;;;1.10;;
26908;SDS011;14477;51.038;4.588;2023-10-08T04:21:53;1.95;;;1.10;;
26908;SDS011;14477;51.038;4.588;2023-10-08T04:24:22;2.88;;;1.10;;
26908;SDS011;14477;51.038;4.588;2023-10-08T04:27:01;2.40;;;1.08;;
26908;SDS011;14477;51.038;4.588;2023-10-08T04:29:28;2.40;;;1.00;;
26908;SDS011;14477;51.038;4.588;2023-10-08T04:31:58;1.73;;;0.95;;
26908;SDS011;14477;51.038;4.588;2023-10-08T04:34:29;2.08;;;1.00;;
26908;SDS011;14477;51.038;4.588;2023-10-08T04:36:58;2.67;;;1.42;;
26908;SDS011;14477;51.038;4.588;2023-10-08T04:39:26;2.03;;;1.00;;
26908;SDS011;14477;51.038;4.588;2023-10-08T04:42:01;2.60;;;1.13;;
26908;SDS011;14477;51.038;4.588;2023-10-08T04:44:35;2.10;;;1.02;;
26908;SDS011;14477;51.038;4.588;2023-10-08T04:47:03;2.78;;;1.10;;
26908;SDS011;14477;51.038;4.588;2023-10-08T04:49:30;1.88;;;1.08;;
26908;SDS011;14477;51.038;4.588;2023-10-08T04:54:34;2.57;;;0.90;;
26908;SDS011;14477;51.038;4.588;2023-10-08T04:57:05;2.13;;;1.00;;
26908;SDS011;14477;51.038;4.588;2023-10-08T04:59:32;1.90;;;1.10;;
26908;SDS011;14477;51.038;4.588;2023-10-08T05:01:59;1.67;;;0.90;;
26908;SDS011;14477;51.038;4.588;2023-10-08T05:04:41;1.42;;;1.00;;
26908;SDS011;14477;51.038;4.588;2023-10-08T05:07:24;2.97;;;1.00;;
26908;SDS011;14477;51.038;4.588;2023-10-08T05:10:16;1.80;;;1.20;;
26908;SDS011;14477;51.038;4.588;2023-10-08T05:12:54;2.10;;;1.00;;
26908;SDS011;14477;51.038;4.588;2023-10-08T05:15:29;2.28;;;1.05;;
26908;SDS011;14477;51.038;4.588;2023-10-08T05:18:02;2.50;;;1.00;;
26908;SDS011;14477;51.038;4.588;2023-10-08T05:20:37;2.20;;;1.20;;
26908;SDS011;14477;51.038;4.588;2023-10-08T05:23:24;2.03;;;1.20;;
26908;SDS011;14477;51.038;4.588;2023-10-08T05:25:54;1.70;;;0.93;;
26908;SDS011;14477;51.038;4.588;2023-10-08T05:28:37;2.83;;;1.20;;
26908;SDS011;14477;51.038;4.588;2023-10-08T05:31:27;2.95;;;1.20;;
26908;SDS011;14477;51.038;4.588;2023-10-08T05:34:05;3.67;;;1.00;;
26908;SDS011;14477;51.038;4.588;2023-10-08T05:36:46;2.72;;;1.30;;
26908;SDS011;14477;51.038;4.588;2023-10-08T05:39:29;3.10;;;1.20;;
26908;SDS011;14477;51.038;4.588;2023-10-08T05:42:08;1.80;;;1.02;;
26908;SDS011;14477;51.038;4.588;2023-10-08T05:44:40;2.15;;;1.30;;
26908;SDS011;14477;51.038;4.588;2023-10-08T05:47:14;2.13;;;0.97;;
26908;SDS011;14477;51.038;4.588;2023-10-08T05:49:58;3.17;;;1.30;;
26908;SDS011;14477;51.038;4.588;2023-10-08T05:52:45;1.58;;;0.90;;
26908;SDS011;14477;51.038;4.588;2023-10-08T05:55:30;2.65;;;1.30;;
26908;SDS011;14477;51.038;4.588;2023-10-08T05:58:02;2.55;;;1.15;;
26908;SDS011;14477;51.038;4.588;2023-10-08T06:00:42;2.03;;;1.10;;
26908;SDS011;14477;51.038;4.588;2023-10-08T06:03:30;1.83;;;0.95;;
26908;SDS011;14477;51.038;4.588;2023-10-08T06:06:22;2.00;;;1.00;;
26908;SDS011;14477;51.038;4.588;2023-10-08T06:08:51;3.13;;;1.30;;
26908;SDS011;14477;51.038;4.588;2023-10-08T06:11:20;2.42;;;1.10;;
26908;SDS011;14477;51.038;4.588;2023-10-08T06:14:04;1.50;;;0.90;;
26908;SDS011;14477;51.038;4.588;2023-10-08T06:16:41;2.25;;;1.10;;
26908;SDS011;14477;51.038;4.588;2023-10-08T06:19:11;3.63;;;1.20;;
26908;SDS011;14477;51.038;4.588;2023-10-08T06:21:38;2.35;;;1.10;;
26908;SDS011;14477;51.038;4.588;2023-10-08T06:24:05;2.58;;;1.10;;
26908;SDS011;14477;51.038;4.588;2023-10-08T06:26:38;2.90;;;0.97;;
26908;SDS011;14477;51.038;4.588;2023-10-08T06:29:11;2.10;;;0.80;;
26908;SDS011;14477;51.038;4.588;2023-10-08T06:31:55;2.03;;;1.20;;
26908;SDS011;14477;51.038;4.588;2023-10-08T06:34:22;2.63;;;0.90;;
26908;SDS011;14477;51.038;4.588;2023-10-08T06:36:52;2.70;;;1.10;;
26908;SDS011;14477;51.038;4.588;2023-10-08T06:39:23;2.33;;;0.97;;
26908;SDS011;14477;51.038;4.588;2023-10-08T06:41:58;2.65;;;1.00;;
26908;SDS011;14477;51.038;4.588;2023-10-08T06:44:25;1.73;;;1.00;;
26908;SDS011;14477;51.038;4.588;2023-10-08T06:46:53;2.13;;;1.20;;
26908;SDS011;14477;51.038;4.588;2023-10-08T06:49:20;2.35;;;1.20;;
26908;SDS011;14477;51.038;4.588;2023-10-08T06:51:49;1.90;;;0.90;;
26908;SDS011;14477;51.038;4.588;2023-10-08T06:54:16;2.70;;;1.00;;
26908;SDS011;14477;51.038;4.588;2023-10-08T06:56:43;2.20;;;1.10;;
26908;SDS011;14477;51.038;4.588;2023-10-08T06:59:16;3.00;;;1.20;;
26908;SDS011;14477;51.038;4.588;2023-10-08T07:01:43;2.65;;;1.10;;
26908;SDS011;14477;51.038;4.588;2023-10-08T07:04:12;2.43;;;1.00;;
26908;SDS011;14477;51.038;4.588;2023-10-08T07:06:39;3.40;;;1.10;;
26908;SDS011;14477;51.038;4.588;2023-10-08T07:09:09;2.80;;;1.40;;
26908;SDS011;14477;51.038;4.588;2023-10-08T07:11:57;2.10;;;1.15;;
26908;SDS011;14477;51.038;4.588;2023-10-08T07:14:24;2.33;;;1.50;;
26908;SDS011;14477;51.038;4.588;2023-10-08T07:19:24;2.67;;;1.30;;
26908;SDS011;14477;51.038;4.588;2023-10-08T07:21:58;2.08;;;1.20;;
26908;SDS011;14477;51.038;4.588;2023-10-08T07:24:28;2.28;;;1.10;;
26908;SDS011;14477;51.038;4.588;2023-10-08T07:26:57;2.60;;;1.60;;
26908;SDS011;14477;51.038;4.588;2023-10-08T07:29:23;3.33;;;1.30;;
26908;SDS011;14477;51.038;4.588;2023-10-08T07:31:50;2.38;;;1.30;;
26908;SDS011;14477;51.038;4.588;2023-10-08T07:34:17;2.75;;;1.50;;
26908;SDS011;14477;51.038;4.588;2023-10-08T07:36:47;2.97;;;1.20;;
26908;SDS011;14477;51.038;4.588;2023-10-08T07:39:14;2.30;;;1.17;;
26908;SDS011;14477;51.038;4.588;2023-10-08T07:41:50;2.60;;;1.58;;
26908;SDS011;14477;51.038;4.588;2023-10-08T07:44:17;2.47;;;1.50;;
26908;SDS011;14477;51.038;4.588;2023-10-08T07:46:46;2.55;;;1.40;;
26908;SDS011;14477;51.038;4.588;2023-10-08T07:49:13;2.72;;;1.40;;
26908;SDS011;14477;51.038;4.588;2023-10-08T07:51:39;2.30;;;1.50;;
26908;SDS011;14477;51.038;4.588;2023-10-08T07:54:06;2.40;;;1.55;;
26908;SDS011;14477;51.038;4.588;2023-10-08T07:56:35;2.28;;;1.45;;
26908;SDS011;14477;51.038;4.588;2023-10-08T07:59:02;3.08;;;1.40;;
26908;SDS011;14477;51.038;4.588;2023-10-08T08:01:34;3.10;;;1.52;;
26908;SDS011;14477;51.038;4.588;2023-10-08T08:03:59;4.00;;;1.50;;
26908;SDS011;14477;51.038;4.588;2023-10-08T08:06:25;3.65;;;1.60;;
26908;SDS011;14477;51.038;4.588;2023-10-08T08:08:51;2.77;;;1.30;;
26908;SDS011;14477;51.038;4.588;2023-10-08T08:11:17;3.80;;;1.70;;
26908;SDS011;14477;51.038;4.588;2023-10-08T08:13:44;2.75;;;1.60;;
26908;SDS011;14477;51.038;4.588;2023-10-08T08:16:13;3.05;;;1.70;;
26908;SDS011;14477;51.038;4.588;2023-10-08T08:18:52;3.30;;;1.60;;
26908;SDS011;14477;51.038;4.588;2023-10-08T08:21:22;2.88;;;1.60;;
26908;SDS011;14477;51.038;4.588;2023-10-08T08:23:48;3.53;;;1.65;;
26908;SDS011;14477;51.038;4.588;2023-10-08T08:26:18;4.07;;;1.70;;
26908;SDS011;14477;51.038;4.588;2023-10-08T08:28:59;3.35;;;1.45;;
26908;SDS011;14477;51.038;4.588;2023-10-08T08:31:27;2.77;;;1.57;;
26908;SDS011;14477;51.038;4.588;2023-10-08T08:33:57;4.03;;;1.60;;
26908;SDS011;14477;51.038;4.588;2023-10-08T08:36:43;2.90;;;1.50;;
26908;SDS011;14477;51.038;4.588;2023-10-08T08:39:13;3.55;;;1.60;;
26908;SDS011;14477;51.038;4.588;2023-10-08T08:41:52;2.67;;;1.50;;
26908;SDS011;14477;51.038;4.588;2023-10-08T08:44:25;4.17;;;1.80;;
26908;SDS011;14477;51.038;4.588;2023-10-08T08:46:57;3.17;;;1.70;;
26908;SDS011;14477;51.038;4.588;2023-10-08T08:49:29;3.97;;;1.80;;
26908;SDS011;14477;51.038;4.588;2023-10-08T08:51:58;4.30;;;1.60;;
26908;SDS011;14477;51.038;4.588;2023-10-08T08:54:27;3.22;;;1.75;;
26908;SDS011;14477;51.038;4.588;2023-10-08T08:56:56;4.57;;;1.93;;
26908;SDS011;14477;51.038;4.588;2023-10-08T08:59:25;3.53;;;1.90;;
26908;SDS011;14477;51.038;4.588;2023-10-08T09:01:52;5.15;;;1.88;;
26908;SDS011;14477;51.038;4.588;2023-10-08T09:04:27;5.45;;;1.77;;
26908;SDS011;14477;51.038;4.588;2023-10-08T09:06:55;3.97;;;1.98;;
26908;SDS011;14477;51.038;4.588;2023-10-08T09:09:21;3.97;;;1.70;;
26908;SDS011;14477;51.038;4.588;2023-10-08T09:11:50;3.90;;;2.03;;
26908;SDS011;14477;51.038;4.588;2023-10-08T09:14:21;3.33;;;1.92;;
26908;SDS011;14477;51.038;4.588;2023-10-08T09:16:51;4.80;;;1.98;;
26908;SDS011;14477;51.038;4.588;2023-10-08T09:19:25;3.80;;;2.10;;
26908;SDS011;14477;51.038;4.588;2023-10-08T09:22:04;5.87;;;2.10;;
26908;SDS011;14477;51.038;4.588;2023-10-08T09:24:36;4.35;;;1.95;;
26908;SDS011;14477;51.038;4.588;2023-10-08T09:27:04;4.22;;;1.73;;
26908;SDS011;14477;51.038;4.588;2023-10-08T09:29:43;4.18;;;2.00;;
26908;SDS011;14477;51.038;4.588;2023-10-08T09:32:11;4.57;;;2.00;;
26908;SDS011;14477;51.038;4.588;2023-10-08T09:34:48;3.90;;;1.87;;
26908;SDS011;14477;51.038;4.588;2023-10-08T09:37:16;5.85;;;2.30;;
26908;SDS011;14477;51.038;4.588;2023-10-08T09:39:43;3.70;;;1.95;;
26908;SDS011;14477;51.038;4.588;2023-10-08T09:42:11;3.55;;;1.80;;
26908;SDS011;14477;51.038;4.588;2023-10-08T09:44:39;4.22;;;2.00;;
26908;SDS011;14477;51.038;4.588;2023-10-08T09:50:13;4.57;;;2.30;;
26908;SDS011;14477;51.038;4.588;2023-10-08T09:52:56;4.45;;;2.38;;
26908;SDS011;14477;51.038;4.588;2023-10-08T09:55:43;3.35;;;2.20;;
26908;SDS011;14477;51.038;4.588;2023-10-08T09:58:13;3.67;;;2.27;;
26908;SDS011;14477;51.038;4.588;2023-10-08T10:00:41;5.55;;;2.58;;
26908;SDS011;14477;51.038;4.588;2023-10-08T10:03:09;4.20;;;2.10;;
26908;SDS011;14477;51.038;4.588;2023-10-08T10:05:38;5.32;;;2.50;;
26908;SDS011;14477;51.038;4.588;2023-10-08T10:08:05;5.25;;;2.72;;
26908;SDS011;14477;51.038;4.588;2023-10-08T10:10:35;5.30;;;2.47;;
26908;SDS011;14477;51.038;4.588;2023-10-08T10:13:11;4.65;;;2.70;;
26908;SDS011;14477;51.038;4.588;2023-10-08T10:15:38;4.47;;;2.53;;
26908;SDS011;14477;51.038;4.588;2023-10-08T10:18:13;5.45;;;2.70;;
26908;SDS011;14477;51.038;4.588;2023-10-08T10:20:43;4.53;;;2.60;;
26908;SDS011;14477;51.038;4.588;2023-10-08T10:23:59;4.37;;;2.33;;
26908;SDS011;14477;51.038;4.588;2023-10-08T10:34:10;4.75;;;2.33;;
26908;SDS011;14477;51.038;4.588;2023-10-08T10:36:38;3.70;;;2.60;;
26908;SDS011;14477;51.038;4.588;2023-10-08T10:39:05;6.05;;;2.45;;
26908;SDS011;14477;51.038;4.588;2023-10-08T10:41:50;3.90;;;2.40;;
26908;SDS011;14477;51.038;4.588;2023-10-08T10:44:16;3.95;;;2.60;;
26908;SDS011;14477;51.038;4.588;2023-10-08T10:46:43;4.70;;;3.15;;
26908;SDS011;14477;51.038;4.588;2023-10-08T10:49:19;4.73;;;2.90;;
26908;SDS011;14477;51.038;4.588;2023-10-08T10:51:48;4.80;;;3.00;;
26908;SDS011;14477;51.038;4.588;2023-10-08T10:54:17;4.20;;;3.10;;
26908;SDS011;14477;51.038;4.588;2023-10-08T10:56:46;5.18;;;2.88;;
26908;SDS011;14477;51.038;4.588;2023-10-08T10:59:13;4.20;;;2.72;;
26908;SDS011;14477;51.038;4.588;2023-10-08T11:01:48;5.47;;;3.00;;
26908;SDS011;14477;51.038;4.588;2023-10-08T11:04:40;4.32;;;3.10;;
26908;SDS011;14477;51.038;4.588;2023-10-08T11:07:18;5.75;;;2.72;;
26908;SDS011;14477;51.038;4.588;2023-10-08T11:09:48;4.60;;;2.92;;
26908;SDS011;14477;51.038;4.588;2023-10-08T11:12:17;3.83;;;2.83;;
26908;SDS011;14477;51.038;4.588;2023-10-08T11:14:48;5.20;;;2.90;;
26908;SDS011;14477;51.038;4.588;2023-10-08T11:17:24;5.10;;;2.95;;
26908;SDS011;14477;51.038;4.588;2023-10-08T11:19:51;5.38;;;2.67;;
26908;SDS011;14477;51.038;4.588;2023-10-08T11:22:19;5.45;;;3.05;;
26908;SDS011;14477;51.038;4.588;2023-10-08T11:24:48;6.97;;;3.00;;
26908;SDS011;14477;51.038;4.588;2023-10-08T11:27:17;4.90;;;2.53;;
26908;SDS011;14477;51.038;4.588;2023-10-08T11:29:54;3.88;;;2.72;;
26908;SDS011;14477;51.038;4.588;2023-10-08T11:32:25;3.50;;;2.50;;
26908;SDS011;14477;51.038;4.588;2023-10-08T11:34:58;5.80;;;2.97;;
26908;SDS011;14477;51.038;4.588;2023-10-08T11:37:29;5.13;;;3.00;;
26908;SDS011;14477;51.038;4.588;2023-10-08T11:39:58;4.33;;;2.77;;
26908;SDS011;14477;51.038;4.588;2023-10-08T11:42:33;4.05;;;2.97;;
26908;SDS011;14477;51.038;4.588;2023-10-08T11:44:59;4.47;;;3.17;;
26908;SDS011;14477;51.038;4.588;2023-10-08T11:47:46;4.53;;;2.83;;
26908;SDS011;14477;51.038;4.588;2023-10-08T11:50:22;6.07;;;2.75;;
26908;SDS011;14477;51.038;4.588;2023-10-08T11:52:56;5.27;;;3.10;;
26908;SDS011;14477;51.038;4.588;2023-10-08T11:55:28;4.80;;;3.15;;
26908;SDS011;14477;51.038;4.588;2023-10-08T11:57:59;4.78;;;3.03;;
26908;SDS011;14477;51.038;4.588;2023-10-08T12:00:25;5.38;;;3.10;;
26908;SDS011;14477;51.038;4.588;2023-10-08T12:02:52;4.50;;;2.90;;
26908;SDS011;14477;51.038;4.588;2023-10-08T12:05:21;9.85;;;2.95;;
26908;SDS011;14477;51.038;4.588;2023-10-08T12:07:53;6.55;;;3.25;;
26908;SDS011;14477;51.038;4.588;2023-10-08T12:10:23;4.72;;;2.75;;
26908;SDS011;14477;51.038;4.588;2023-10-08T12:15:17;5.20;;;2.80;;
26908;SDS011;14477;51.038;4.588;2023-10-08T12:17:51;4.63;;;3.17;;
26908;SDS011;14477;51.038;4.588;2023-10-08T12:20:36;5.35;;;3.15;;
26908;SDS011;14477;51.038;4.588;2023-10-08T12:23:09;5.05;;;2.83;;
26908;SDS011;14477;51.038;4.588;2023-10-08T12:25:48;4.15;;;2.83;;
26908;SDS011;14477;51.038;4.588;2023-10-08T12:28:19;4.80;;;2.50;;
26908;SDS011;14477;51.038;4.588;2023-10-08T12:30:45;4.63;;;2.78;;
26908;SDS011;14477;51.038;4.588;2023-10-08T12:33:11;4.65;;;2.83;;
26908;SDS011;14477;51.038;4.588;2023-10-08T12:35:41;5.32;;;2.65;;
26908;SDS011;14477;51.038;4.588;2023-10-08T12:38:08;5.05;;;2.90;;
26908;SDS011;14477;51.038;4.588;2023-10-08T12:40:37;6.53;;;3.00;;
26908;SDS011;14477;51.038;4.588;2023-10-08T12:43:24;4.07;;;2.60;;
26908;SDS011;14477;51.038;4.588;2023-10-08T12:45:53;4.80;;;2.50;;
26908;SDS011;14477;51.038;4.588;2023-10-08T12:48:26;4.53;;;2.67;;
26908;SDS011;14477;51.038;4.588;2023-10-08T12:50:56;4.45;;;2.70;;
26908;SDS011;14477;51.038;4.588;2023-10-08T12:53:22;5.30;;;2.53;;
26908;SDS011;14477;51.038;4.588;2023-10-08T12:55:55;5.97;;;2.42;;
26908;SDS011;14477;51.038;4.588;2023-10-08T12:58:23;5.38;;;2.67;;
26908;SDS011;14477;51.038;4.588;2023-10-08T13:00:51;4.28;;;2.45;;
26908;SDS011;14477;51.038;4.588;2023-10-08T13:03:26;5.25;;;2.75;;
26908;SDS011;14477;51.038;4.588;2023-10-08T13:05:58;5.07;;;2.50;;
26908;SDS011;14477;51.038;4.588;2023-10-08T13:08:31;4.85;;;2.83;;
26908;SDS011;14477;51.038;4.588;2023-10-08T13:11:00;5.53;;;2.65;;
26908;SDS011;14477;51.038;4.588;2023-10-08T13:13:35;5.20;;;3.00;;
26908;SDS011;14477;51.038;4.588;2023-10-08T13:16:02;8.80;;;2.70;;
26908;SDS011;14477;51.038;4.588;2023-10-08T13:18:32;5.23;;;2.60;;
26908;SDS011;14477;51.038;4.588;2023-10-08T13:20:59;6.28;;;2.47;;
26908;SDS011;14477;51.038;4.588;2023-10-08T13:23:26;4.75;;;2.80;;
26908;SDS011;14477;51.038;4.588;2023-10-08T13:25:52;6.43;;;2.58;;
26908;SDS011;14477;51.038;4.588;2023-10-08T13:28:23;4.70;;;2.53;;
26908;SDS011;14477;51.038;4.588;2023-10-08T13:30:51;3.80;;;2.57;;
26908;SDS011;14477;51.038;4.588;2023-10-08T13:33:21;5.00;;;2.60;;
26908;SDS011;14477;51.038;4.588;2023-10-08T13:35:48;4.15;;;2.45;;
26908;SDS011;14477;51.038;4.588;2023-10-08T13:38:18;4.40;;;2.45;;
26908;SDS011;14477;51.038;4.588;2023-10-08T13:40:48;5.15;;;2.38;;
26908;SDS011;14477;51.038;4.588;2023-10-08T13:43:31;5.30;;;2.37;;
26908;SDS011;14477;51.038;4.588;2023-10-08T13:46:01;4.18;;;2.22;;
26908;SDS011;14477;51.038;4.588;2023-10-08T13:48:30;3.83;;;2.15;;
26908;SDS011;14477;51.038;4.588;2023-10-08T13:51:01;3.58;;;2.00;;
26908;SDS011;14477;51.038;4.588;2023-10-08T13:53:29;4.13;;;2.42;;
26908;SDS011;14477;51.038;4.588;2023-10-08T13:55:57;4.47;;;2.10;;
26908;SDS011;14477;51.038;4.588;2023-10-08T13:58:25;4.55;;;2.30;;
26908;SDS011;14477;51.038;4.588;2023-10-08T14:01:09;3.67;;;2.22;;
26908;SDS011;14477;51.038;4.588;2023-10-08T14:03:47;4.53;;;2.25;;
26908;SDS011;14477;51.038;4.588;2023-10-08T14:06:14;5.35;;;2.40;;
26908;SDS011;14477;51.038;4.588;2023-10-08T14:08:41;10.97;;;4.33;;
26908;SDS011;14477;51.038;4.588;2023-10-08T14:11:13;6.22;;;2.53;;
26908;SDS011;14477;51.038;4.588;2023-10-08T14:13:39;6.82;;;5.18;;
26908;SDS011;14477;51.038;4.588;2023-10-08T14:16:08;5.15;;;2.70;;
26908;SDS011;14477;51.038;4.588;2023-10-08T14:18:36;7.05;;;3.60;;
26908;SDS011;14477;51.038;4.588;2023-10-08T14:21:08;4.30;;;2.30;;
26908;SDS011;14477;51.038;4.588;2023-10-08T14:23:38;5.88;;;2.13;;
26908;SDS011;14477;51.038;4.588;2023-10-08T14:26:08;4.63;;;2.85;;
26908;SDS011;14477;51.038;4.588;2023-10-08T14:28:36;6.28;;;2.58;;
26908;SDS011;14477;51.038;4.588;2023-10-08T14:31:09;3.92;;;1.92;;
26908;SDS011;14477;51.038;4.588;2023-10-08T14:33:43;5.07;;;2.40;;
26908;SDS011;14477;51.038;4.588;2023-10-08T14:36:30;5.35;;;2.10;;
26908;SDS011;14477;51.038;4.588;2023-10-08T14:39:18;3.80;;;2.00;;
26908;SDS011;14477;51.038;4.588;2023-10-08T14:42:04;4.28;;;2.00;;
26908;SDS011;14477;51.038;4.588;2023-10-08T14:44:55;4.20;;;1.80;;
26908;SDS011;14477;51.038;4.588;2023-10-08T14:47:21;4.40;;;2.20;;
26908;SDS011;14477;51.038;4.588;2023-10-08T14:49:47;4.03;;;1.98;;
26908;SDS011;14477;51.038;4.588;2023-10-08T14:52:13;3.78;;;2.00;;
26908;SDS011;14477;51.038;4.588;2023-10-08T14:54:39;4.63;;;2.30;;
26908;SDS011;14477;51.038;4.588;2023-10-08T14:57:07;4.10;;;1.87;;
26908;SDS011;14477;51.038;4.588;2023-10-08T14:59:33;4.20;;;2.17;;
26908;SDS011;14477;51.038;4.588;2023-10-08T15:01:59;5.50;;;2.08;;
26908;SDS011;14477;51.038;4.588;2023-10-08T15:04:25;4.15;;;1.90;;
26908;SDS011;14477;51.038;4.588;2023-10-08T15:06:57;3.92;;;1.83;;
26908;SDS011;14477;51.038;4.588;2023-10-08T15:09:24;3.50;;;2.10;;
26908;SDS011;14477;51.038;4.588;2023-10-08T15:11:50;4.32;;;2.00;;
26908;SDS011;14477;51.038;4.588;2023-10-08T15:14:19;3.85;;;2.03;;
26908;SDS011;14477;51.038;4.588;2023-10-08T15:16:47;4.85;;;2.00;;
26908;SDS011;14477;51.038;4.588;2023-10-08T15:19:20;4.90;;;1.90;;
26908;SDS011;14477;51.038;4.588;2023-10-08T15:21:50;4.53;;;2.07;;
26908;SDS011;14477;51.038;4.588;2023-10-08T15:24:20;4.35;;;1.90;;
26908;SDS011;14477;51.038;4.588;2023-10-08T15:26:47;3.42;;;2.03;;
26908;SDS011;14477;51.038;4.588;2023-10-08T15:29:14;4.47;;;2.08;;
26908;SDS011;14477;51.038;4.588;2023-10-08T15:31:41;3.30;;;1.77;;
26908;SDS011;14477;51.038;4.588;2023-10-08T15:34:08;4.67;;;1.93;;
26908;SDS011;14477;51.038;4.588;2023-10-08T15:36:34;4.28;;;2.00;;